createdAt,value
2022-11-10T00:01:05.484Z,0.31
2022-11-10T00:04:24.965Z,0.34
2022-11-10T00:06:04.740Z,0.32
2022-11-10T00:07:44.487Z,0.34
2022-11-10T00:09:24.263Z,0.35
2022-11-10T00:11:04.026Z,0.37
2022-11-10T00:12:43.799Z,0.32
2022-11-10T00:14:23.557Z,0.31
2022-11-10T00:16:03.335Z,0.33
2022-11-10T00:17:43.094Z,0.34
2022-11-10T00:24:22.167Z,0.4
2022-11-10T00:26:01.921Z,0.47
2022-11-10T00:27:41.761Z,0.49
2022-11-10T00:29:21.478Z,0.46
2022-11-10T00:31:01.241Z,0.41
2022-11-10T00:32:41.002Z,0.4
2022-11-10T00:34:20.795Z,0.4
2022-11-10T00:36:00.531Z,0.47
2022-11-10T00:37:40.319Z,0.44
2022-11-10T00:39:20.156Z,0.39
2022-11-10T00:40:59.885Z,0.45
2022-11-10T00:42:39.603Z,0.44
2022-11-10T00:44:19.534Z,0.39
2022-11-10T00:45:59.147Z,0.39
2022-11-10T00:47:38.895Z,0.39
2022-11-10T00:49:18.704Z,0.39
2022-11-10T00:50:58.462Z,0.51
2022-11-10T00:52:38.204Z,0.37
2022-11-10T00:54:18.035Z,0.37
2022-11-10T00:55:57.829Z,0.43
2022-11-10T00:57:37.521Z,0.36
2022-11-10T00:59:17.285Z,0.35
2022-11-10T01:00:57.062Z,0.34
2022-11-10T01:02:36.813Z,0.33
2022-11-10T01:04:16.627Z,0.37
2022-11-10T01:05:56.345Z,0.37
2022-11-10T01:07:36.119Z,0.37
2022-11-10T01:09:15.882Z,0.35
2022-11-10T01:10:55.649Z,0.36
2022-11-10T01:12:35.415Z,0.35
2022-11-10T01:14:15.186Z,0.34
2022-11-10T01:15:54.938Z,0.34
2022-11-10T01:17:34.713Z,0.37
2022-11-10T01:19:14.541Z,0.36
2022-11-10T01:20:54.262Z,0.38
2022-11-10T01:22:34.101Z,0.36
2022-11-10T01:24:13.774Z,0.35
2022-11-10T01:25:53.554Z,0.38
2022-11-10T01:27:33.320Z,0.36
2022-11-10T01:29:13.084Z,0.38
2022-11-10T01:30:52.948Z,0.41
2022-11-10T01:32:32.636Z,0.35
2022-11-10T01:34:12.396Z,0.36
2022-11-10T01:35:52.164Z,0.38
2022-11-10T01:37:31.922Z,0.39
2022-11-10T01:39:11.721Z,0.38
2022-11-10T01:40:51.448Z,0.39
2022-11-10T01:42:31.230Z,0.37
2022-11-10T01:44:10.999Z,0.39
2022-11-10T01:45:50.754Z,0.36
2022-11-10T01:47:30.601Z,0.34
2022-11-10T01:49:10.356Z,0.37
2022-11-10T01:50:50.127Z,0.37
2022-11-10T01:52:29.836Z,0.37
2022-11-10T01:54:09.676Z,0.36
2022-11-10T01:55:49.426Z,0.43
2022-11-10T01:57:29.124Z,0.39
2022-11-10T01:59:08.922Z,0.35
2022-11-10T02:00:48.669Z,0.36
2022-11-10T02:02:28.450Z,0.35
2022-11-10T02:04:08.202Z,0.39
2022-11-10T02:05:48.032Z,0.4
2022-11-10T02:07:27.736Z,0.37
2022-11-10T02:09:07.505Z,0.34
2022-11-10T02:10:47.280Z,0.31
2022-11-10T02:12:27.034Z,0.36
2022-11-10T02:14:06.803Z,0.36
2022-11-10T02:15:46.576Z,0.34
2022-11-10T02:17:26.350Z,0.32
2022-11-10T02:19:06.113Z,0.29
2022-11-10T02:20:45.890Z,0.33
2022-11-10T02:22:25.648Z,0.37
2022-11-10T02:24:05.442Z,0.35
2022-11-10T02:25:45.199Z,0.35
2022-11-10T02:27:24.950Z,0.33
2022-11-10T02:29:04.720Z,0.33
2022-11-10T02:32:24.257Z,0.31
2022-11-10T02:34:04.015Z,0.32
2022-11-10T02:35:43.788Z,0.35
2022-11-10T02:37:23.605Z,0.36
2022-11-10T02:39:03.312Z,0.36
2022-11-10T02:40:43.085Z,0.34
2022-11-10T02:42:22.844Z,0.33
2022-11-10T02:44:02.635Z,0.35
2022-11-10T02:45:42.415Z,0.34
2022-11-10T02:47:22.149Z,0.36
2022-11-10T02:49:01.916Z,0.35
2022-11-10T02:50:41.678Z,0.35
2022-11-10T02:52:21.451Z,0.32
2022-11-10T02:54:01.241Z,0.35
2022-11-10T02:55:40.982Z,0.33
2022-11-10T02:57:20.766Z,0.37
2022-11-10T02:59:00.526Z,0.39
2022-11-10T03:00:40.294Z,0.34
2022-11-10T03:02:20.077Z,0.35
2022-11-10T03:03:59.831Z,0.33
2022-11-10T03:05:39.605Z,0.33
2022-11-10T03:07:19.355Z,0.32
2022-11-10T03:08:59.188Z,0.32
2022-11-10T03:10:38.964Z,0.33
2022-11-10T03:12:18.667Z,0.32
2022-11-10T03:13:58.425Z,0.34
2022-11-10T03:15:38.200Z,0.32
2022-11-10T03:17:17.969Z,0.34
2022-11-10T03:18:57.750Z,0.35
2022-11-10T03:20:37.492Z,0.3
2022-11-10T03:22:17.278Z,0.32
2022-11-10T03:23:57.026Z,0.35
2022-11-10T03:25:36.804Z,0.31
2022-11-10T03:27:16.569Z,0.34
2022-11-10T03:28:56.331Z,0.35
2022-11-10T03:30:36.115Z,0.37
2022-11-10T03:32:15.892Z,0.37
2022-11-10T03:33:55.647Z,0.33
2022-11-10T03:35:35.400Z,0.41
2022-11-10T03:37:15.170Z,0.37
2022-11-10T03:38:54.963Z,0.46
2022-11-10T03:40:34.743Z,0.44
2022-11-10T03:42:14.483Z,0.41
2022-11-10T03:43:54.374Z,0.35
2022-11-10T03:45:34.055Z,0.33
2022-11-10T03:47:13.781Z,0.3
2022-11-10T03:48:53.606Z,0.42
2022-11-10T03:52:13.066Z,0.36
2022-11-10T03:53:52.845Z,0.39
2022-11-10T03:55:32.626Z,0.41
2022-11-10T03:57:12.363Z,0.29
2022-11-10T03:58:52.122Z,0.37
2022-11-10T04:00:31.910Z,0.38
2022-11-10T04:02:11.703Z,0.4
2022-11-10T04:03:51.438Z,0.38
2022-11-10T04:05:31.190Z,0.35
2022-11-10T04:07:10.956Z,0.37
2022-11-10T04:08:50.759Z,0.29
2022-11-10T04:10:30.487Z,0.4
2022-11-10T04:12:10.250Z,0.33
2022-11-10T04:13:50.020Z,0.39
2022-11-10T04:15:29.776Z,0.35
2022-11-10T04:17:09.556Z,0.34
2022-11-10T04:18:49.317Z,0.36
2022-11-10T04:20:29.072Z,0.35
2022-11-10T04:22:08.844Z,0.31
2022-11-10T04:23:48.600Z,0.32
2022-11-10T04:25:28.364Z,0.32
2022-11-10T04:27:08.135Z,0.28
2022-11-10T04:28:47.901Z,0.28
2022-11-10T04:30:27.719Z,0.3
2022-11-10T04:32:07.423Z,0.31
2022-11-10T04:33:47.186Z,0.33
2022-11-10T04:35:26.950Z,0.36
2022-11-10T04:37:06.720Z,0.33
2022-11-10T04:38:46.476Z,0.35
2022-11-10T04:40:26.241Z,0.33
2022-11-10T04:42:06.045Z,0.33
2022-11-10T04:43:45.803Z,0.4
2022-11-10T04:45:25.558Z,0.39
2022-11-10T04:47:05.317Z,0.37
2022-11-10T04:48:45.065Z,0.35
2022-11-10T04:50:24.834Z,0.34
2022-11-10T04:52:04.584Z,0.31
2022-11-10T04:53:44.363Z,0.34
2022-11-10T04:55:24.131Z,0.26
2022-11-10T04:57:03.893Z,0.29
2022-11-10T04:58:43.652Z,0.33
2022-11-10T05:00:23.419Z,0.32
2022-11-10T05:02:03.196Z,0.39
2022-11-10T05:03:42.953Z,0.34
2022-11-10T05:05:22.717Z,0.32
2022-11-10T05:08:42.243Z,0.32
2022-11-10T05:15:21.305Z,0.33
2022-11-10T05:17:01.067Z,0.35
2022-11-10T05:18:40.839Z,0.32
2022-11-10T05:20:20.598Z,0.38
2022-11-10T05:22:00.377Z,0.37
2022-11-10T05:25:19.910Z,0.45
2022-11-10T05:26:59.682Z,0.48
2022-11-10T05:28:39.443Z,0.58
2022-11-10T05:30:19.206Z,0.66
2022-11-10T05:31:59.039Z,0.8
2022-11-10T05:33:38.741Z,0.93
2022-11-10T05:35:18.513Z,1.19
2022-11-10T05:36:58.276Z,1.46
2022-11-10T05:38:38.034Z,1.92
2022-11-10T05:40:17.811Z,2.45
2022-11-10T05:41:57.573Z,3.13
2022-11-10T05:43:37.348Z,4.04
2022-11-10T05:45:17.142Z,5.19
2022-11-10T05:46:56.873Z,6.64
2022-11-10T05:48:36.638Z,8.47
2022-11-10T05:50:16.465Z,10.78
2022-11-10T05:51:56.171Z,13.61
2022-11-10T05:53:35.996Z,17.03
2022-11-10T05:55:15.769Z,21.04
2022-11-10T05:56:55.464Z,25.48
2022-11-10T05:58:35.280Z,30
2022-11-10T06:00:15.018Z,30.29
2022-11-10T06:01:54.784Z,26.81
2022-11-10T06:03:34.567Z,26.71
2022-11-10T06:05:14.305Z,26.84
2022-11-10T06:06:54.072Z,26.85
2022-11-10T06:08:33.832Z,26.86
2022-11-10T06:10:13.595Z,26.86
2022-11-10T06:11:53.379Z,26.87
2022-11-10T06:13:33.140Z,26.87
2022-11-10T06:15:12.891Z,26.87
2022-11-10T06:16:52.663Z,26.89
2022-11-10T06:18:32.472Z,26.89
2022-11-10T06:20:12.191Z,26.9
2022-11-10T06:21:51.990Z,26.92
2022-11-10T06:23:31.725Z,26.92
2022-11-10T06:25:11.509Z,26.91
2022-11-10T06:26:51.329Z,26.93
2022-11-10T06:28:31.037Z,26.92
2022-11-10T06:30:10.968Z,26.95
2022-11-10T06:31:50.582Z,26.95
2022-11-10T06:33:30.417Z,26.98
2022-11-10T06:35:10.159Z,26.99
2022-11-10T06:36:49.884Z,27.01
2022-11-10T06:38:29.674Z,27.02
2022-11-10T06:41:49.165Z,27.05
2022-11-10T06:43:28.988Z,27.06
2022-11-10T06:45:08.739Z,27.07
2022-11-10T06:48:28.247Z,27.1
2022-11-10T06:50:08.064Z,27.13
2022-11-10T06:51:47.784Z,27.13
2022-11-10T06:53:27.560Z,27.14
2022-11-10T06:55:07.349Z,27.16
2022-11-10T06:56:47.175Z,27.19
2022-11-10T06:58:26.906Z,27.2
2022-11-10T07:00:06.635Z,38.46
2022-11-10T07:01:46.390Z,27.97
2022-11-10T07:03:26.280Z,27.27
2022-11-10T07:05:05.952Z,27.29
2022-11-10T07:06:45.699Z,27.3
2022-11-10T07:08:25.482Z,27.33
2022-11-10T07:10:05.249Z,27.36
2022-11-10T07:11:45.007Z,27.38
2022-11-10T07:13:24.795Z,27.44
2022-11-10T07:15:04.554Z,27.56
2022-11-10T07:16:44.327Z,27.63
2022-11-10T07:18:24.115Z,27.59
2022-11-10T07:20:03.884Z,27.69
2022-11-10T07:21:43.643Z,27.83
2022-11-10T07:23:23.449Z,28.01
2022-11-10T07:25:03.201Z,28.09
2022-11-10T07:26:42.949Z,28.1
2022-11-10T07:28:22.723Z,28.17
2022-11-10T07:30:02.551Z,28.19
2022-11-10T07:31:42.256Z,28.19
2022-11-10T07:33:22.030Z,28.27
2022-11-10T07:35:01.800Z,28.36
2022-11-10T07:36:41.561Z,28.4
2022-11-10T07:38:21.353Z,28.4
2022-11-10T07:40:01.125Z,28.39
2022-11-10T07:41:40.883Z,28.39
2022-11-10T07:43:20.649Z,28.42
2022-11-10T07:45:00.409Z,28.44
2022-11-10T07:46:40.192Z,28.48
2022-11-10T07:48:19.982Z,28.47
2022-11-10T07:49:59.749Z,28.45
2022-11-10T07:51:39.502Z,28.44
2022-11-10T07:53:19.257Z,28.46
2022-11-10T07:54:59.043Z,28.47
2022-11-10T07:56:38.885Z,28.49
2022-11-10T07:58:18.570Z,28.55
2022-11-10T07:59:58.392Z,82.79
2022-11-10T08:01:38.120Z,75.33
2022-11-10T08:03:17.882Z,74.21
2022-11-10T08:04:57.769Z,45.83
2022-11-10T08:06:37.436Z,28.92
2022-11-10T08:08:17.256Z,28.88
2022-11-10T08:09:57.006Z,28.84
2022-11-10T08:11:36.741Z,28.84
2022-11-10T08:13:16.537Z,28.88
2022-11-10T08:14:56.386Z,28.87
2022-11-10T08:16:36.216Z,28.89
2022-11-10T08:18:15.814Z,28.9
2022-11-10T08:19:55.648Z,28.92
2022-11-10T08:21:35.448Z,28.92
2022-11-10T08:23:15.133Z,28.93
2022-11-10T08:24:55.008Z,28.92
2022-11-10T08:26:34.710Z,29.14
2022-11-10T08:28:14.522Z,29.44
2022-11-10T08:29:54.290Z,30.09
2022-11-10T08:33:13.823Z,31.85
2022-11-10T08:34:53.526Z,43.35
2022-11-10T08:36:33.385Z,85.51
2022-11-10T08:38:13.058Z,85.74
2022-11-10T08:39:52.859Z,85.61
2022-11-10T08:41:32.601Z,85.77
2022-11-10T08:43:12.445Z,82.48
2022-11-10T08:44:52.154Z,85.96
2022-11-10T08:46:31.981Z,85.9
2022-11-10T08:48:11.805Z,86.01
2022-11-10T08:49:51.447Z,86.14
2022-11-10T08:51:31.222Z,86
2022-11-10T08:53:10.986Z,86.08
2022-11-10T08:54:50.771Z,86.01
2022-11-10T08:56:30.631Z,86.23
2022-11-10T08:58:10.313Z,86.3
2022-11-10T09:01:29.858Z,86.14
2022-11-10T09:03:09.645Z,86.2
2022-11-10T09:04:49.387Z,86.23
2022-11-10T09:06:29.164Z,86.31
2022-11-10T09:08:09.009Z,86.25
2022-11-10T09:09:48.707Z,86.17
2022-11-10T09:11:28.473Z,86.1
2022-11-10T09:13:08.332Z,85.96
2022-11-10T09:14:48.006Z,86.04
2022-11-10T09:16:27.812Z,86.61
2022-11-10T09:18:07.660Z,85.96
2022-11-10T09:19:47.340Z,85.36
2022-11-10T09:21:27.096Z,86.89
2022-11-10T09:23:06.860Z,86.65
2022-11-10T09:24:46.638Z,85.15
2022-11-10T09:26:26.429Z,86.74
2022-11-10T09:28:06.187Z,86.47
2022-11-10T09:29:45.948Z,83.85
2022-11-10T09:31:25.713Z,84.35
2022-11-10T09:33:05.540Z,86.12
2022-11-10T09:34:45.257Z,85.14
2022-11-10T09:36:25.023Z,84.41
2022-11-10T09:38:04.803Z,85.42
2022-11-10T09:39:44.629Z,82.45
2022-11-10T09:41:24.352Z,82.35
2022-11-10T09:43:04.107Z,87.43
2022-11-10T09:44:43.872Z,86.89
2022-11-10T09:46:23.656Z,84.57
2022-11-10T09:48:03.423Z,87.67
2022-11-10T09:49:43.186Z,86.5
2022-11-10T09:51:22.959Z,87.09
2022-11-10T09:53:02.722Z,87.22
2022-11-10T09:54:42.495Z,85.21
2022-11-10T09:56:22.258Z,83.45
2022-11-10T09:58:02.043Z,87.93
2022-11-10T09:59:41.838Z,83.6
2022-11-10T10:01:21.573Z,82.8
2022-11-10T10:03:01.430Z,87.15
2022-11-10T10:04:41.119Z,82.81
2022-11-10T10:06:20.969Z,88.13
2022-11-10T10:08:00.721Z,87.99
2022-11-10T10:09:40.465Z,87.06
2022-11-10T10:11:20.248Z,87.59
2022-11-10T10:12:59.971Z,83.36
2022-11-10T10:14:39.747Z,82.34
2022-11-10T10:16:19.522Z,87.37
2022-11-10T10:17:59.355Z,87.27
2022-11-10T10:19:39.111Z,81.06
2022-11-10T10:21:18.821Z,86.56
2022-11-10T10:22:58.597Z,81.21
2022-11-10T10:24:38.379Z,87.26
2022-11-10T10:26:18.147Z,81.5
2022-11-10T10:27:58.003Z,78.96
2022-11-10T10:29:37.684Z,85.32
2022-11-10T10:31:17.458Z,88.26
2022-11-10T10:32:57.221Z,87.73
2022-11-10T10:34:37.022Z,87.82
2022-11-10T10:36:16.756Z,87.81
2022-11-10T10:37:56.538Z,87.66
2022-11-10T10:39:36.306Z,81.23
2022-11-10T10:41:16.065Z,79.91
2022-11-10T10:42:55.839Z,88.12
2022-11-10T10:44:35.631Z,87.74
2022-11-10T10:46:15.416Z,88.12
2022-11-10T10:47:55.156Z,88.07
2022-11-10T10:49:34.929Z,82.35
2022-11-10T10:51:14.697Z,84.82
2022-11-10T10:52:54.555Z,85.72
2022-11-10T10:54:34.340Z,83.12
2022-11-10T10:56:13.997Z,85.01
2022-11-10T10:57:53.825Z,84.05
2022-11-10T10:59:33.585Z,84.18
2022-11-10T11:01:13.316Z,86.03
2022-11-10T11:02:53.076Z,83.51
2022-11-10T11:04:32.849Z,79.08
2022-11-10T11:06:12.720Z,79.97
2022-11-10T11:07:52.527Z,78.3
2022-11-10T11:09:32.180Z,81.1
2022-11-10T11:11:11.995Z,82.09
2022-11-10T11:12:51.791Z,82.5
2022-11-10T11:14:31.602Z,80.44
2022-11-10T11:16:11.294Z,79.31
2022-11-10T11:17:51.027Z,79.83
2022-11-10T11:19:30.787Z,89.1
2022-11-10T11:21:10.574Z,86.53
2022-11-10T11:22:50.337Z,83.95
2022-11-10T11:24:30.092Z,82.4
2022-11-10T11:26:09.933Z,82.03
2022-11-10T11:27:49.691Z,82.56
2022-11-10T11:29:29.561Z,85.17
2022-11-10T11:31:09.177Z,83.22
2022-11-10T11:32:49.010Z,84.92
2022-11-10T11:34:28.805Z,85.26
2022-11-10T11:36:08.536Z,84.48
2022-11-10T11:37:48.263Z,84.24
2022-11-10T11:39:28.034Z,83.5
2022-11-10T11:41:07.851Z,83.71
2022-11-10T11:42:47.607Z,84.95
2022-11-10T11:44:27.358Z,84.6
2022-11-10T11:46:07.104Z,85.16
2022-11-10T11:47:46.880Z,84.14
2022-11-10T11:49:26.670Z,85.01
2022-11-10T11:51:06.450Z,84.03
2022-11-10T11:52:46.335Z,83.8
2022-11-10T11:54:25.998Z,83.92
2022-11-10T11:56:05.775Z,84.67
2022-11-10T11:57:45.531Z,84.54
2022-11-10T11:59:25.299Z,84.62
2022-11-10T12:01:05.122Z,84.51
2022-11-10T12:02:44.812Z,84.92
2022-11-10T12:04:24.611Z,89.26
2022-11-10T12:06:04.364Z,83.68
2022-11-10T12:07:44.127Z,84.49
2022-11-10T12:09:23.899Z,84.31
2022-11-10T12:11:03.675Z,83.94
2022-11-10T12:12:43.445Z,83.68
2022-11-10T12:14:23.227Z,84.19
2022-11-10T12:16:03.049Z,83.93
2022-11-10T12:17:42.757Z,84.21
2022-11-10T12:19:22.529Z,83.05
2022-11-10T12:21:02.294Z,83.53
2022-11-10T12:22:42.072Z,83.92
2022-11-10T12:24:21.838Z,83.75
2022-11-10T12:26:01.739Z,84.1
2022-11-10T12:27:41.376Z,84.14
2022-11-10T12:29:21.135Z,83.83
2022-11-10T12:31:00.934Z,83.52
2022-11-10T12:32:40.776Z,83.73
2022-11-10T12:34:20.443Z,84.21
2022-11-10T12:36:00.225Z,84.46
2022-11-10T12:37:40.004Z,84.9
2022-11-10T12:39:19.753Z,84.19
2022-11-10T12:40:59.523Z,83.71
2022-11-10T12:42:39.384Z,83.92
2022-11-10T12:44:19.078Z,87.45
2022-11-10T12:45:58.848Z,83.56
2022-11-10T12:47:38.633Z,83.17
2022-11-10T12:49:18.387Z,83.34
2022-11-10T12:50:58.201Z,82.47
2022-11-10T12:52:37.932Z,81.93
2022-11-10T12:54:17.687Z,81.99
2022-11-10T12:55:57.484Z,82.36
2022-11-10T12:57:37.355Z,82.22
2022-11-10T12:59:17.016Z,81.53
2022-11-10T13:00:56.775Z,81.82
2022-11-10T13:02:36.550Z,84.01
2022-11-10T13:04:16.378Z,88.09
2022-11-10T13:05:56.091Z,84.78
2022-11-10T13:07:35.916Z,84.45
2022-11-10T13:09:15.760Z,84.13
2022-11-10T13:10:55.500Z,84.68
2022-11-10T13:12:35.237Z,85.37
2022-11-10T13:14:14.945Z,85.32
2022-11-10T13:15:54.720Z,86.04
2022-11-10T13:17:34.509Z,85.05
2022-11-10T13:19:14.317Z,84.11
2022-11-10T13:20:54.118Z,83.54
2022-11-10T13:22:33.839Z,82.79
2022-11-10T13:24:13.671Z,83.07
2022-11-10T13:25:53.387Z,83.24
2022-11-10T13:27:33.107Z,85.41
2022-11-10T13:29:12.916Z,82.13
2022-11-10T13:30:52.686Z,82.99
2022-11-10T13:32:32.520Z,87.37
2022-11-10T13:34:12.182Z,87.6
2022-11-10T13:35:51.935Z,87.26
2022-11-10T13:37:31.705Z,87.1
2022-11-10T13:39:11.493Z,82.75
2022-11-10T13:40:51.359Z,86.66
2022-11-10T13:42:31.015Z,86.52
2022-11-10T13:44:10.920Z,83.91
2022-11-10T13:45:50.704Z,82.45
2022-11-10T13:47:30.342Z,82.91
2022-11-10T13:49:10.108Z,83.77
2022-11-10T13:50:49.881Z,84.05
2022-11-10T13:52:29.655Z,83.53
2022-11-10T13:54:09.404Z,83.12
2022-11-10T13:57:29.024Z,81.14
2022-11-10T13:59:08.819Z,81.12
2022-11-10T14:00:48.525Z,81.08
2022-11-10T14:02:28.284Z,81.72
2022-11-10T14:04:08.038Z,82.43
2022-11-10T14:05:47.832Z,82.21
2022-11-10T14:07:27.587Z,82.17
2022-11-10T14:09:07.348Z,82.03
2022-11-10T14:10:47.115Z,82.68
2022-11-10T14:12:26.889Z,81.5
2022-11-10T14:14:06.668Z,81.68
2022-11-10T14:15:46.439Z,81.69
2022-11-10T14:17:26.211Z,80.79
2022-11-10T14:19:05.965Z,82.57
2022-11-10T14:20:45.746Z,82.03
2022-11-10T14:22:25.633Z,85.27
2022-11-10T14:24:05.350Z,85.1
2022-11-10T14:25:45.061Z,84.89
2022-11-10T14:27:24.829Z,82.94
2022-11-10T14:29:04.599Z,84.21
2022-11-10T14:30:44.387Z,80.58
2022-11-10T14:32:24.127Z,77.82
2022-11-10T14:34:03.901Z,79.1
2022-11-10T14:35:43.685Z,78.01
2022-11-10T14:37:23.467Z,82.05
2022-11-10T14:39:03.216Z,80.71
2022-11-10T14:40:42.996Z,79.32
2022-11-10T14:42:22.755Z,77.75
2022-11-10T14:44:02.579Z,76.58
2022-11-10T14:45:42.300Z,79.5
2022-11-10T14:47:22.086Z,75.43
2022-11-10T14:49:01.850Z,72.12
2022-11-10T14:50:41.708Z,66.74
2022-11-10T14:52:21.390Z,57.56
2022-11-10T14:54:01.166Z,46.5
2022-11-10T14:55:40.935Z,40.39
2022-11-10T14:57:20.702Z,39.72
2022-11-10T14:59:00.464Z,40.04
2022-11-10T15:00:40.229Z,39.93
2022-11-10T15:02:19.998Z,39.59
2022-11-10T15:03:59.780Z,39.4
2022-11-10T15:05:39.581Z,38.73
2022-11-10T15:07:19.371Z,37.74
2022-11-10T15:08:59.089Z,37.06
2022-11-10T15:10:38.855Z,36.78
2022-11-10T15:12:18.682Z,35.78
2022-11-10T15:13:58.431Z,32.64
2022-11-10T15:15:38.168Z,29.42
2022-11-10T15:17:18.004Z,28.32
2022-11-10T15:18:57.729Z,28.26
2022-11-10T15:20:37.510Z,28.22
2022-11-10T15:22:17.258Z,28.19
2022-11-10T15:23:57.002Z,28.15
2022-11-10T15:25:36.760Z,28.11
2022-11-10T15:27:16.541Z,28.08
2022-11-10T15:28:56.317Z,28.04
2022-11-10T15:30:36.070Z,28.01
2022-11-10T15:32:15.846Z,31.92
2022-11-10T15:33:55.605Z,27.94
2022-11-10T15:35:35.376Z,27.93
2022-11-10T15:37:15.153Z,27.88
2022-11-10T15:38:54.981Z,27.84
2022-11-10T15:40:34.672Z,27.81
2022-11-10T15:42:14.458Z,27.72
2022-11-10T15:43:54.201Z,27.64
2022-11-10T15:45:33.969Z,24.65
2022-11-10T15:47:13.799Z,20.01
2022-11-10T15:48:53.627Z,16.08
2022-11-10T15:50:33.278Z,12.9
2022-11-10T15:52:13.124Z,10.44
2022-11-10T15:53:52.810Z,8.42
2022-11-10T15:55:32.582Z,6.84
2022-11-10T15:57:12.368Z,5.48
2022-11-10T15:58:52.123Z,4.38
2022-11-10T16:00:31.882Z,3.47
2022-11-10T16:02:11.647Z,2.79
2022-11-10T16:03:51.448Z,2.24
2022-11-10T16:05:31.184Z,1.85
2022-11-10T16:07:11.052Z,1.51
2022-11-10T16:08:50.725Z,1.23
2022-11-10T16:10:30.478Z,1.01
2022-11-10T16:12:10.370Z,0.8
2022-11-10T16:13:50.040Z,0.65
2022-11-10T16:15:29.792Z,0.56
2022-11-10T16:17:09.654Z,0.48
2022-11-10T16:18:49.431Z,0.43
2022-11-10T16:20:29.090Z,0.34
2022-11-10T16:22:08.848Z,0.3
2022-11-10T16:23:48.641Z,0.28
2022-11-10T16:25:28.451Z,0.24
2022-11-10T16:27:08.170Z,0.22
2022-11-10T16:28:47.915Z,0.2
2022-11-10T16:30:27.688Z,0.23
2022-11-10T16:32:07.462Z,0.21
2022-11-10T16:33:47.289Z,0.2
2022-11-10T16:35:27.021Z,0.19
2022-11-10T16:37:06.807Z,0.19
2022-11-10T16:38:46.677Z,0.21
2022-11-10T16:40:26.345Z,0.18
2022-11-10T16:42:06.092Z,0.19
2022-11-10T16:43:45.869Z,0.19
2022-11-10T16:45:25.606Z,0.2
2022-11-10T16:47:05.407Z,0.19
2022-11-10T16:48:45.155Z,0.19
2022-11-10T16:50:24.901Z,0.2
2022-11-10T16:52:04.673Z,0.19
2022-11-10T16:53:44.446Z,0.21
2022-11-10T16:55:24.214Z,0.21
2022-11-10T16:57:03.972Z,0.18
2022-11-10T17:00:23.515Z,0.2
2022-11-10T17:02:03.344Z,0.18
2022-11-10T17:03:43.112Z,0.17
2022-11-10T17:05:22.812Z,0.17
2022-11-10T17:07:02.572Z,0.17
2022-11-10T17:08:42.369Z,0.19
2022-11-10T17:10:22.107Z,0.2
2022-11-10T17:12:01.886Z,0.19
2022-11-10T17:13:41.649Z,0.2
2022-11-10T17:15:21.412Z,0.22
2022-11-10T17:17:01.181Z,0.21
2022-11-10T17:18:40.953Z,0.18
2022-11-10T17:20:20.719Z,0.22
2022-11-10T17:22:00.494Z,0.21
2022-11-10T17:25:20.027Z,0.24
2022-11-10T17:26:59.789Z,0.24
2022-11-10T17:28:39.620Z,0.27
2022-11-10T17:30:19.323Z,0.28
2022-11-10T17:31:59.094Z,0.26
2022-11-10T17:33:38.907Z,0.29
2022-11-10T17:35:18.641Z,0.3
2022-11-10T17:36:58.418Z,0.26
2022-11-10T17:38:38.185Z,0.28
2022-11-10T17:40:17.940Z,0.28
2022-11-10T17:41:57.704Z,0.3
2022-11-10T17:43:37.474Z,0.3
2022-11-10T17:45:17.350Z,0.27
2022-11-10T17:46:57.034Z,0.29
2022-11-10T17:48:36.765Z,0.32
2022-11-10T17:50:16.536Z,0.3
2022-11-10T17:51:56.331Z,0.3
2022-11-10T17:53:36.064Z,0.31
2022-11-10T17:55:15.841Z,0.31
2022-11-10T17:56:55.610Z,0.3
2022-11-10T18:00:15.148Z,0.31
2022-11-10T18:01:54.919Z,0.33
2022-11-10T18:03:34.669Z,0.31
2022-11-10T18:05:14.452Z,0.34
2022-11-10T18:06:54.226Z,0.3
2022-11-10T18:10:13.747Z,0.32
2022-11-10T18:11:53.511Z,0.35
2022-11-10T18:13:33.279Z,0.32
2022-11-10T18:15:13.098Z,0.32
2022-11-10T18:16:52.811Z,0.35
2022-11-10T18:18:32.649Z,0.33
2022-11-10T18:20:12.365Z,0.3
2022-11-10T18:21:52.203Z,0.32
2022-11-10T18:23:31.876Z,0.3
2022-11-10T18:25:11.674Z,0.29
2022-11-10T18:26:51.412Z,0.33
2022-11-10T18:28:31.218Z,0.32
2022-11-10T18:30:10.949Z,0.3
2022-11-10T18:31:50.724Z,0.31
2022-11-10T18:33:30.493Z,0.3
2022-11-10T18:35:10.248Z,0.28
2022-11-10T18:36:50.027Z,0.31
2022-11-10T18:38:29.794Z,0.32
2022-11-10T18:40:09.575Z,0.29
2022-11-10T18:43:29.087Z,0.29
2022-11-10T18:45:08.920Z,0.32
2022-11-10T18:46:48.620Z,0.27
2022-11-10T18:48:28.392Z,0.32
2022-11-10T18:50:08.148Z,0.3
2022-11-10T18:53:27.696Z,0.3
2022-11-10T18:55:07.460Z,0.32
2022-11-10T18:56:47.230Z,0.3
2022-11-10T18:58:26.995Z,0.31
2022-11-10T19:00:06.765Z,0.34
2022-11-10T19:01:46.528Z,0.31
2022-11-10T19:03:26.337Z,0.35
2022-11-10T19:05:06.072Z,0.33
2022-11-10T19:06:45.815Z,0.32
2022-11-10T19:08:25.630Z,0.32
2022-11-10T19:10:05.381Z,0.3
2022-11-10T19:11:45.129Z,0.3
2022-11-10T19:13:24.928Z,0.31
2022-11-10T19:15:04.683Z,0.33
2022-11-10T19:16:44.491Z,0.32
2022-11-10T19:18:24.203Z,0.32
2022-11-10T19:20:03.977Z,0.33
2022-11-10T19:21:43.741Z,0.31
2022-11-10T19:23:23.495Z,0.32
2022-11-10T19:25:03.274Z,0.32
2022-11-10T19:26:43.034Z,0.32
2022-11-10T19:28:22.819Z,0.34
2022-11-10T19:30:02.569Z,0.33
2022-11-10T19:31:42.338Z,0.3
2022-11-10T19:33:22.323Z,0.29
2022-11-10T19:35:01.876Z,0.3
2022-11-10T19:36:41.655Z,0.31
2022-11-10T19:38:21.420Z,0.33
2022-11-10T19:40:01.253Z,0.32
2022-11-10T19:41:41.074Z,0.33
2022-11-10T19:43:20.715Z,0.33
2022-11-10T19:45:00.486Z,0.35
2022-11-10T19:46:40.245Z,0.34
2022-11-10T19:48:20.023Z,0.3
2022-11-10T19:49:59.792Z,0.33
2022-11-10T19:51:39.545Z,0.31
2022-11-10T19:53:19.336Z,0.32
2022-11-10T19:54:59.095Z,0.35
2022-11-10T19:56:38.886Z,0.33
2022-11-10T19:58:18.622Z,0.34
2022-11-10T19:59:58.385Z,0.32
2022-11-10T20:01:38.157Z,0.31
2022-11-10T20:03:17.912Z,0.33
2022-11-10T20:06:37.570Z,0.31
2022-11-10T20:08:17.241Z,0.35
2022-11-10T20:09:56.993Z,0.32
2022-11-10T20:11:36.770Z,0.34
2022-11-10T20:13:16.512Z,0.3
2022-11-10T20:14:56.371Z,0.33
2022-11-10T20:16:36.115Z,0.34
2022-11-10T20:18:15.848Z,0.3
2022-11-10T20:19:55.623Z,0.31
2022-11-10T20:21:35.495Z,0.34
2022-11-10T20:23:15.145Z,0.3
2022-11-10T20:24:54.900Z,0.33
2022-11-10T20:26:34.666Z,0.32
2022-11-10T20:28:14.427Z,0.31
2022-11-10T20:29:54.202Z,0.32
2022-11-10T20:31:34.082Z,0.32
2022-11-10T20:33:13.727Z,0.31
2022-11-10T20:34:53.507Z,0.31
2022-11-10T20:36:33.327Z,0.34
2022-11-10T20:38:13.030Z,0.32
2022-11-10T20:39:52.805Z,0.31
2022-11-10T20:41:32.563Z,0.33
2022-11-10T20:43:12.333Z,0.31
2022-11-10T20:44:52.127Z,0.3
2022-11-10T20:46:31.880Z,0.3
2022-11-10T20:48:11.640Z,0.32
2022-11-10T20:49:51.494Z,0.31
2022-11-10T20:51:31.190Z,0.29
2022-11-10T20:53:10.951Z,0.32
2022-11-10T20:54:50.704Z,0.34
2022-11-10T20:56:30.510Z,0.33
2022-11-10T20:58:10.241Z,0.32
2022-11-10T20:59:50.041Z,0.3
2022-11-10T21:01:29.774Z,0.29
2022-11-10T21:03:09.614Z,0.29
2022-11-10T21:04:49.338Z,0.3
2022-11-10T21:06:29.127Z,0.32
2022-11-10T21:08:08.861Z,0.31
2022-11-10T21:09:48.630Z,0.33
2022-11-10T21:11:28.379Z,0.33
2022-11-10T21:13:08.203Z,0.33
2022-11-10T21:14:47.912Z,0.33
2022-11-10T21:16:27.679Z,0.33
2022-11-10T21:18:07.461Z,0.31
2022-11-10T21:19:47.235Z,0.32
2022-11-10T21:21:27.065Z,0.32
2022-11-10T21:23:06.749Z,0.31
2022-11-10T21:24:46.520Z,0.33
2022-11-10T21:26:26.320Z,0.31
2022-11-10T21:28:06.057Z,0.3
2022-11-10T21:29:45.830Z,0.33
2022-11-10T21:31:25.594Z,0.34
2022-11-10T21:33:05.364Z,0.33
2022-11-10T21:34:45.117Z,0.33
2022-11-10T21:36:24.893Z,0.31
2022-11-10T21:39:44.441Z,0.3
2022-11-10T21:41:24.198Z,0.33
2022-11-10T21:43:03.959Z,0.32
2022-11-10T21:44:43.726Z,0.32
2022-11-10T21:46:23.497Z,0.32
2022-11-10T21:48:03.265Z,0.28
2022-11-10T21:49:43.053Z,0.28
2022-11-10T21:51:22.799Z,0.33
2022-11-10T21:53:02.569Z,0.26
2022-11-10T21:54:42.339Z,0.3
2022-11-10T21:56:22.112Z,0.26
2022-11-10T21:58:01.866Z,0.32
2022-11-10T21:59:41.645Z,0.3
2022-11-10T22:01:21.418Z,0.31
2022-11-10T22:03:01.171Z,0.33
2022-11-10T22:04:40.945Z,0.28
2022-11-10T22:06:20.703Z,0.32
2022-11-10T22:08:00.481Z,0.29
2022-11-10T22:09:40.313Z,0.3
2022-11-10T22:11:20.154Z,0.3
2022-11-10T22:12:59.786Z,0.31
2022-11-10T22:14:39.588Z,0.31
2022-11-10T22:16:19.309Z,0.33
2022-11-10T22:17:59.081Z,0.3
2022-11-10T22:19:38.882Z,0.31
2022-11-10T22:21:18.623Z,0.32
2022-11-10T22:22:58.388Z,0.32
2022-11-10T22:24:38.149Z,0.34
2022-11-10T22:26:17.945Z,0.32
2022-11-10T22:29:37.517Z,0.32
2022-11-10T22:31:17.242Z,0.34
2022-11-10T22:32:57.082Z,0.33
2022-11-10T22:34:36.779Z,0.36